sensor_id;sensor_type;location;lat;lon;timestamp;temperature;humidity
26270;DHT22;15937;50.612;6.656;2023-09-19T00:02:56;16.00;99.90
26270;DHT22;15937;50.612;6.656;2023-09-19T00:06:59;16.00;99.90
26270;DHT22;15937;50.612;6.656;2023-09-19T00:11:00;16.00;99.90
26270;DHT22;15937;50.612;6.656;2023-09-19T00:15:04;16.00;99.90
26270;DHT22;15937;50.612;6.656;2023-09-19T00:19:08;16.00;99.90
26270;DHT22;15937;50.612;6.656;2023-09-19T00:23:10;16.00;99.90
26270;DHT22;15937;50.612;6.656;2023-09-19T00:27:12;16.00;99.90
26270;DHT22;15937;50.612;6.656;2023-09-19T00:31:14;16.00;99.90
26270;DHT22;15937;50.612;6.656;2023-09-19T00:35:15;16.00;99.90
26270;DHT22;15937;50.612;6.656;2023-09-19T00:39:17;15.90;99.90
26270;DHT22;15937;50.612;6.656;2023-09-19T00:43:21;15.90;99.90
26270;DHT22;15937;50.612;6.656;2023-09-19T00:47:25;15.80;99.90
26270;DHT22;15937;50.612;6.656;2023-09-19T00:51:29;15.80;99.90
26270;DHT22;15937;50.612;6.656;2023-09-19T00:55:31;15.70;99.90
26270;DHT22;15937;50.612;6.656;2023-09-19T00:59:34;15.70;99.90
26270;DHT22;15937;50.612;6.656;2023-09-19T01:03:37;15.60;99.90
26270;DHT22;15937;50.612;6.656;2023-09-19T01:07:39;15.50;99.90
26270;DHT22;15937;50.612;6.656;2023-09-19T01:11:47;15.50;99.90
26270;DHT22;15937;50.612;6.656;2023-09-19T01:28:11;15.40;99.90
26270;DHT22;15937;50.612;6.656;2023-09-19T01:32:17;15.20;99.90
26270;DHT22;15937;50.612;6.656;2023-09-19T01:36:23;15.20;99.90
26270;DHT22;15937;50.612;6.656;2023-09-19T01:40:25;15.20;99.90
26270;DHT22;15937;50.612;6.656;2023-09-19T01:44:40;15.20;99.90
26270;DHT22;15937;50.612;6.656;2023-09-19T01:52:54;15.10;99.90
26270;DHT22;15937;50.612;6.656;2023-09-19T01:57:01;15.10;99.90
26270;DHT22;15937;50.612;6.656;2023-09-19T02:01:05;15.00;99.90
26270;DHT22;15937;50.612;6.656;2023-09-19T02:05:10;15.10;99.90
26270;DHT22;15937;50.612;6.656;2023-09-19T02:09:12;15.00;99.90
26270;DHT22;15937;50.612;6.656;2023-09-19T02:13:13;15.00;99.90
26270;DHT22;15937;50.612;6.656;2023-09-19T02:17:15;15.00;99.90
26270;DHT22;15937;50.612;6.656;2023-09-19T02:21:17;14.90;99.90
26270;DHT22;15937;50.612;6.656;2023-09-19T02:25:19;14.90;99.90
26270;DHT22;15937;50.612;6.656;2023-09-19T02:29:21;14.90;99.90
26270;DHT22;15937;50.612;6.656;2023-09-19T02:33:24;14.80;99.90
26270;DHT22;15937;50.612;6.656;2023-09-19T02:37:25;14.90;99.90
26270;DHT22;15937;50.612;6.656;2023-09-19T02:41:27;14.90;99.90
26270;DHT22;15937;50.612;6.656;2023-09-19T02:45:31;14.80;99.90
26270;DHT22;15937;50.612;6.656;2023-09-19T02:49:33;14.80;99.90
26270;DHT22;15937;50.612;6.656;2023-09-19T02:53:36;14.70;99.90
26270;DHT22;15937;50.612;6.656;2023-09-19T02:57:38;14.80;99.90
26270;DHT22;15937;50.612;6.656;2023-09-19T03:01:45;14.70;99.90
26270;DHT22;15937;50.612;6.656;2023-09-19T03:05:49;14.60;99.90
26270;DHT22;15937;50.612;6.656;2023-09-19T03:09:55;14.70;99.90
26270;DHT22;15937;50.612;6.656;2023-09-19T03:13:57;14.70;99.90
26270;DHT22;15937;50.612;6.656;2023-09-19T03:17:59;14.60;99.90
26270;DHT22;15937;50.612;6.656;2023-09-19T03:22:01;14.60;99.90
26270;DHT22;15937;50.612;6.656;2023-09-19T03:31:05;14.50;99.90
26270;DHT22;15937;50.612;6.656;2023-09-19T03:35:07;14.40;99.90
26270;DHT22;15937;50.612;6.656;2023-09-19T03:39:12;14.50;99.90
26270;DHT22;15937;50.612;6.656;2023-09-19T03:43:16;14.50;99.90
26270;DHT22;15937;50.612;6.656;2023-09-19T03:47:21;14.40;99.90
26270;DHT22;15937;50.612;6.656;2023-09-19T03:51:29;14.40;99.90
26270;DHT22;15937;50.612;6.656;2023-09-19T03:55:31;14.40;99.90
26270;DHT22;15937;50.612;6.656;2023-09-19T03:59:33;14.30;99.90
26270;DHT22;15937;50.612;6.656;2023-09-19T04:03:36;14.30;99.90
26270;DHT22;15937;50.612;6.656;2023-09-19T04:07:49;14.30;99.90
26270;DHT22;15937;50.612;6.656;2023-09-19T04:11:51;14.20;99.90
26270;DHT22;15937;50.612;6.656;2023-09-19T04:15:53;14.30;99.90
26270;DHT22;15937;50.612;6.656;2023-09-19T04:19:54;14.20;99.90
26270;DHT22;15937;50.612;6.656;2023-09-19T04:23:56;14.20;99.90
26270;DHT22;15937;50.612;6.656;2023-09-19T04:27:58;14.10;99.90
26270;DHT22;15937;50.612;6.656;2023-09-19T04:32:00;14.10;99.90
26270;DHT22;15937;50.612;6.656;2023-09-19T04:36:02;14.10;99.90
26270;DHT22;15937;50.612;6.656;2023-09-19T04:40:25;14.00;99.90
26270;DHT22;15937;50.612;6.656;2023-09-19T04:44:28;14.00;99.90
26270;DHT22;15937;50.612;6.656;2023-09-19T04:48:30;14.00;99.90
26270;DHT22;15937;50.612;6.656;2023-09-19T04:52:31;13.90;99.90
26270;DHT22;15937;50.612;6.656;2023-09-19T04:56:33;13.90;99.90
26270;DHT22;15937;50.612;6.656;2023-09-19T05:00:35;13.90;99.90
26270;DHT22;15937;50.612;6.656;2023-09-19T05:04:37;13.90;99.90
26270;DHT22;15937;50.612;6.656;2023-09-19T05:08:39;13.80;99.90
26270;DHT22;15937;50.612;6.656;2023-09-19T05:12:41;13.90;99.90
26270;DHT22;15937;50.612;6.656;2023-09-19T05:16:43;13.80;99.90
26270;DHT22;15937;50.612;6.656;2023-09-19T05:20:44;13.80;99.90
26270;DHT22;15937;50.612;6.656;2023-09-19T05:24:46;13.80;99.90
26270;DHT22;15937;50.612;6.656;2023-09-19T05:28:51;13.80;99.90
26270;DHT22;15937;50.612;6.656;2023-09-19T05:32:54;13.80;99.90
26270;DHT22;15937;50.612;6.656;2023-09-19T05:36:56;13.80;99.90
26270;DHT22;15937;50.612;6.656;2023-09-19T05:40:58;13.80;99.90
26270;DHT22;15937;50.612;6.656;2023-09-19T05:45:00;13.80;99.90
26270;DHT22;15937;50.612;6.656;2023-09-19T05:49:02;13.80;99.90
26270;DHT22;15937;50.612;6.656;2023-09-19T05:53:04;13.80;99.90
26270;DHT22;15937;50.612;6.656;2023-09-19T05:57:06;13.80;99.90
26270;DHT22;15937;50.612;6.656;2023-09-19T06:01:08;13.80;99.90
26270;DHT22;15937;50.612;6.656;2023-09-19T06:05:11;13.80;99.90
26270;DHT22;15937;50.612;6.656;2023-09-19T06:09:12;13.90;99.90
26270;DHT22;15937;50.612;6.656;2023-09-19T06:13:15;13.90;99.90
26270;DHT22;15937;50.612;6.656;2023-09-19T06:17:17;13.90;99.90
26270;DHT22;15937;50.612;6.656;2023-09-19T06:21:22;13.90;99.90
26270;DHT22;15937;50.612;6.656;2023-09-19T06:25:23;14.00;99.90
26270;DHT22;15937;50.612;6.656;2023-09-19T06:29:25;14.00;99.90
26270;DHT22;15937;50.612;6.656;2023-09-19T06:33:28;14.10;99.90
26270;DHT22;15937;50.612;6.656;2023-09-19T06:37:29;14.20;99.90
26270;DHT22;15937;50.612;6.656;2023-09-19T06:41:31;14.10;99.90
26270;DHT22;15937;50.612;6.656;2023-09-19T06:45:33;14.20;99.90
26270;DHT22;15937;50.612;6.656;2023-09-19T06:49:35;14.30;99.90
26270;DHT22;15937;50.612;6.656;2023-09-19T06:53:36;14.40;99.90
26270;DHT22;15937;50.612;6.656;2023-09-19T06:57:39;14.40;99.90
26270;DHT22;15937;50.612;6.656;2023-09-19T07:01:42;14.50;99.90
26270;DHT22;15937;50.612;6.656;2023-09-19T07:05:46;14.50;99.90
26270;DHT22;15937;50.612;6.656;2023-09-19T07:09:48;14.60;99.90
26270;DHT22;15937;50.612;6.656;2023-09-19T07:13:50;14.60;99.90
26270;DHT22;15937;50.612;6.656;2023-09-19T07:17:52;14.80;99.90
26270;DHT22;15937;50.612;6.656;2023-09-19T07:21:58;14.80;99.90
26270;DHT22;15937;50.612;6.656;2023-09-19T07:26:01;15.00;99.90
26270;DHT22;15937;50.612;6.656;2023-09-19T07:30:03;15.00;99.90
26270;DHT22;15937;50.612;6.656;2023-09-19T07:34:05;15.10;99.90
26270;DHT22;15937;50.612;6.656;2023-09-19T07:38:07;15.10;99.90
26270;DHT22;15937;50.612;6.656;2023-09-19T07:42:09;15.10;99.90
26270;DHT22;15937;50.612;6.656;2023-09-19T07:46:13;15.30;99.90
26270;DHT22;15937;50.612;6.656;2023-09-19T07:50:15;15.20;99.90
26270;DHT22;15937;50.612;6.656;2023-09-19T07:54:18;15.30;99.90
26270;DHT22;15937;50.612;6.656;2023-09-19T07:58:19;15.40;99.90
26270;DHT22;15937;50.612;6.656;2023-09-19T08:02:21;15.40;99.90
26270;DHT22;15937;50.612;6.656;2023-09-19T08:06:24;15.50;99.90
26270;DHT22;15937;50.612;6.656;2023-09-19T08:10:33;15.30;99.90
26270;DHT22;15937;50.612;6.656;2023-09-19T08:14:37;15.70;99.90
26270;DHT22;15937;50.612;6.656;2023-09-19T08:18:39;15.60;99.90
26270;DHT22;15937;50.612;6.656;2023-09-19T08:22:51;15.70;99.90
26270;DHT22;15937;50.612;6.656;2023-09-19T08:26:57;15.80;99.90
26270;DHT22;15937;50.612;6.656;2023-09-19T08:31:05;15.90;99.90
26270;DHT22;15937;50.612;6.656;2023-09-19T08:35:07;16.10;99.90
26270;DHT22;15937;50.612;6.656;2023-09-19T08:39:10;16.30;99.90
26270;DHT22;15937;50.612;6.656;2023-09-19T08:43:13;16.30;99.90
26270;DHT22;15937;50.612;6.656;2023-09-19T08:47:15;16.50;99.90
26270;DHT22;15937;50.612;6.656;2023-09-19T08:51:27;16.40;99.90
26270;DHT22;15937;50.612;6.656;2023-09-19T08:55:31;16.60;99.90
26270;DHT22;15937;50.612;6.656;2023-09-19T08:59:35;16.60;99.90
26270;DHT22;15937;50.612;6.656;2023-09-19T09:03:41;16.70;99.90
26270;DHT22;15937;50.612;6.656;2023-09-19T09:07:47;16.70;99.90
26270;DHT22;15937;50.612;6.656;2023-09-19T09:11:49;16.80;99.90
26270;DHT22;15937;50.612;6.656;2023-09-19T09:15:54;17.00;99.90
26270;DHT22;15937;50.612;6.656;2023-09-19T09:19:56;17.00;99.90
26270;DHT22;15937;50.612;6.656;2023-09-19T09:23:58;17.20;99.90
26270;DHT22;15937;50.612;6.656;2023-09-19T09:28:00;17.30;99.90
26270;DHT22;15937;50.612;6.656;2023-09-19T09:32:21;17.40;99.90
26270;DHT22;15937;50.612;6.656;2023-09-19T09:36:39;17.00;99.90
26270;DHT22;15937;50.612;6.656;2023-09-19T09:40:49;17.50;99.90
26270;DHT22;15937;50.612;6.656;2023-09-19T09:49:22;17.70;99.90
26270;DHT22;15937;50.612;6.656;2023-09-19T09:53:29;17.90;99.90
26270;DHT22;15937;50.612;6.656;2023-09-19T09:57:33;17.70;99.90
26270;DHT22;15937;50.612;6.656;2023-09-19T10:01:48;17.90;99.90
26270;DHT22;15937;50.612;6.656;2023-09-19T10:05:53;18.10;99.90
26270;DHT22;15937;50.612;6.656;2023-09-19T10:09:56;18.00;99.90
26270;DHT22;15937;50.612;6.656;2023-09-19T10:14:07;18.20;99.90
26270;DHT22;15937;50.612;6.656;2023-09-19T10:18:11;18.40;99.90
26270;DHT22;15937;50.612;6.656;2023-09-19T10:22:19;18.40;99.90
26270;DHT22;15937;50.612;6.656;2023-09-19T10:26:25;18.50;99.90
26270;DHT22;15937;50.612;6.656;2023-09-19T10:30:27;18.70;99.90
26270;DHT22;15937;50.612;6.656;2023-09-19T10:34:30;18.50;99.90
26270;DHT22;15937;50.612;6.656;2023-09-19T10:38:32;18.60;99.90
26270;DHT22;15937;50.612;6.656;2023-09-19T10:42:35;18.70;99.90
26270;DHT22;15937;50.612;6.656;2023-09-19T10:46:39;18.20;99.90
26270;DHT22;15937;50.612;6.656;2023-09-19T10:54:43;18.80;99.90
26270;DHT22;15937;50.612;6.656;2023-09-19T10:58:46;18.80;99.90
26270;DHT22;15937;50.612;6.656;2023-09-19T11:07:10;19.00;99.90
26270;DHT22;15937;50.612;6.656;2023-09-19T11:11:38;18.80;99.90
26270;DHT22;15937;50.612;6.656;2023-09-19T11:33:15;19.10;99.90
26270;DHT22;15937;50.612;6.656;2023-09-19T11:36:47;18.70;99.90
26270;DHT22;15937;50.612;6.656;2023-09-19T11:41:06;18.90;99.90
26270;DHT22;15937;50.612;6.656;2023-09-19T11:49:33;19.10;99.90
26270;DHT22;15937;50.612;6.656;2023-09-19T11:53:35;19.00;99.90
26270;DHT22;15937;50.612;6.656;2023-09-19T11:57:41;18.70;99.90
26270;DHT22;15937;50.612;6.656;2023-09-19T12:01:49;19.00;99.90
26270;DHT22;15937;50.612;6.656;2023-09-19T12:05:51;18.90;99.90
26270;DHT22;15937;50.612;6.656;2023-09-19T12:10:03;19.10;99.90
26270;DHT22;15937;50.612;6.656;2023-09-19T12:14:06;18.90;99.90
26270;DHT22;15937;50.612;6.656;2023-09-19T12:18:08;19.30;99.90
26270;DHT22;15937;50.612;6.656;2023-09-19T12:22:10;19.30;99.90
26270;DHT22;15937;50.612;6.656;2023-09-19T12:26:12;19.10;99.90
26270;DHT22;15937;50.612;6.656;2023-09-19T12:30:14;19.50;99.90
26270;DHT22;15937;50.612;6.656;2023-09-19T12:34:23;19.50;99.90
26270;DHT22;15937;50.612;6.656;2023-09-19T12:38:25;19.50;99.90
26270;DHT22;15937;50.612;6.656;2023-09-19T12:42:29;19.60;99.90
26270;DHT22;15937;50.612;6.656;2023-09-19T12:46:34;19.80;99.90
26270;DHT22;15937;50.612;6.656;2023-09-19T12:50:58;19.90;99.90
26270;DHT22;15937;50.612;6.656;2023-09-19T12:54:59;19.60;99.90
26270;DHT22;15937;50.612;6.656;2023-09-19T12:59:04;19.60;99.90
26270;DHT22;15937;50.612;6.656;2023-09-19T13:07:39;20.00;99.90
26270;DHT22;15937;50.612;6.656;2023-09-19T13:11:44;19.80;99.90
26270;DHT22;15937;50.612;6.656;2023-09-19T13:15:53;19.90;99.90
26270;DHT22;15937;50.612;6.656;2023-09-19T13:19:55;19.70;99.90
26270;DHT22;15937;50.612;6.656;2023-09-19T13:24:18;19.60;99.90
26270;DHT22;15937;50.612;6.656;2023-09-19T13:28:20;20.00;99.90
26270;DHT22;15937;50.612;6.656;2023-09-19T13:32:22;19.60;99.90
26270;DHT22;15937;50.612;6.656;2023-09-19T13:36:24;19.80;99.90
26270;DHT22;15937;50.612;6.656;2023-09-19T13:40:26;19.80;99.90
26270;DHT22;15937;50.612;6.656;2023-09-19T13:44:32;19.60;99.90
26270;DHT22;15937;50.612;6.656;2023-09-19T13:48:33;19.60;99.90
26270;DHT22;15937;50.612;6.656;2023-09-19T13:52:37;19.50;99.90
26270;DHT22;15937;50.612;6.656;2023-09-19T13:56:40;20.00;99.90
26270;DHT22;15937;50.612;6.656;2023-09-19T14:00:41;19.90;99.90
26270;DHT22;15937;50.612;6.656;2023-09-19T14:04:44;19.80;99.90
26270;DHT22;15937;50.612;6.656;2023-09-19T14:08:46;19.60;99.90
26270;DHT22;15937;50.612;6.656;2023-09-19T14:12:49;19.50;99.90
26270;DHT22;15937;50.612;6.656;2023-09-19T14:16:51;19.50;99.90
26270;DHT22;15937;50.612;6.656;2023-09-19T14:20:56;19.50;99.90
26270;DHT22;15937;50.612;6.656;2023-09-19T14:24:58;19.50;99.90
26270;DHT22;15937;50.612;6.656;2023-09-19T14:29:01;19.60;99.90
26270;DHT22;15937;50.612;6.656;2023-09-19T14:33:03;19.60;99.90
26270;DHT22;15937;50.612;6.656;2023-09-19T14:37:05;19.60;99.90
26270;DHT22;15937;50.612;6.656;2023-09-19T14:41:08;19.70;99.90
26270;DHT22;15937;50.612;6.656;2023-09-19T14:45:10;19.50;99.90
26270;DHT22;15937;50.612;6.656;2023-09-19T14:49:13;19.60;99.90
26270;DHT22;15937;50.612;6.656;2023-09-19T14:53:17;19.30;99.90
26270;DHT22;15937;50.612;6.656;2023-09-19T14:57:19;19.30;99.90
26270;DHT22;15937;50.612;6.656;2023-09-19T15:01:21;19.30;99.90
26270;DHT22;15937;50.612;6.656;2023-09-19T15:05:24;19.20;99.90
26270;DHT22;15937;50.612;6.656;2023-09-19T15:09:26;19.40;99.90
26270;DHT22;15937;50.612;6.656;2023-09-19T15:13:28;19.40;99.90
26270;DHT22;15937;50.612;6.656;2023-09-19T15:17:30;19.40;99.90
26270;DHT22;15937;50.612;6.656;2023-09-19T15:21:32;19.40;99.90
26270;DHT22;15937;50.612;6.656;2023-09-19T15:25:34;19.40;99.90
26270;DHT22;15937;50.612;6.656;2023-09-19T15:29:36;19.40;99.90
26270;DHT22;15937;50.612;6.656;2023-09-19T15:33:40;19.30;99.90
26270;DHT22;15937;50.612;6.656;2023-09-19T15:37:42;19.40;99.90
26270;DHT22;15937;50.612;6.656;2023-09-19T15:41:45;19.30;99.90
26270;DHT22;15937;50.612;6.656;2023-09-19T15:45:47;19.50;99.90
26270;DHT22;15937;50.612;6.656;2023-09-19T15:49:52;19.30;99.90
26270;DHT22;15937;50.612;6.656;2023-09-19T15:53:54;19.30;99.90
26270;DHT22;15937;50.612;6.656;2023-09-19T15:57:57;19.20;99.90
26270;DHT22;15937;50.612;6.656;2023-09-19T16:02:00;19.20;99.90
26270;DHT22;15937;50.612;6.656;2023-09-19T16:06:02;19.20;99.90
26270;DHT22;15937;50.612;6.656;2023-09-19T16:10:09;19.30;99.90
26270;DHT22;15937;50.612;6.656;2023-09-19T16:14:10;19.30;99.90
26270;DHT22;15937;50.612;6.656;2023-09-19T16:18:15;19.30;99.90
26270;DHT22;15937;50.612;6.656;2023-09-19T16:22:17;19.40;99.90
26270;DHT22;15937;50.612;6.656;2023-09-19T16:26:19;19.30;99.90
26270;DHT22;15937;50.612;6.656;2023-09-19T16:30:22;19.30;99.90
26270;DHT22;15937;50.612;6.656;2023-09-19T16:34:23;19.20;99.90
26270;DHT22;15937;50.612;6.656;2023-09-19T16:38:25;19.10;99.90
26270;DHT22;15937;50.612;6.656;2023-09-19T16:42:27;19.10;99.90
26270;DHT22;15937;50.612;6.656;2023-09-19T16:46:38;18.90;99.90
26270;DHT22;15937;50.612;6.656;2023-09-19T16:50:40;18.80;99.90
26270;DHT22;15937;50.612;6.656;2023-09-19T16:54:42;18.70;99.90
26270;DHT22;15937;50.612;6.656;2023-09-19T16:58:45;18.60;99.90
26270;DHT22;15937;50.612;6.656;2023-09-19T17:02:47;18.50;99.90
26270;DHT22;15937;50.612;6.656;2023-09-19T17:06:53;18.60;99.90
26270;DHT22;15937;50.612;6.656;2023-09-19T17:11:08;18.40;99.90
26270;DHT22;15937;50.612;6.656;2023-09-19T17:15:14;18.30;99.90
26270;DHT22;15937;50.612;6.656;2023-09-19T17:19:16;18.30;99.90
26270;DHT22;15937;50.612;6.656;2023-09-19T17:23:17;18.20;99.90
26270;DHT22;15937;50.612;6.656;2023-09-19T17:27:19;18.20;99.90
26270;DHT22;15937;50.612;6.656;2023-09-19T17:31:21;18.20;99.90
26270;DHT22;15937;50.612;6.656;2023-09-19T17:35:24;18.10;99.90
26270;DHT22;15937;50.612;6.656;2023-09-19T17:39:26;18.00;99.90
26270;DHT22;15937;50.612;6.656;2023-09-19T17:43:32;17.90;99.90
26270;DHT22;15937;50.612;6.656;2023-09-19T17:47:39;18.00;99.90
26270;DHT22;15937;50.612;6.656;2023-09-19T17:51:40;17.80;99.90
26270;DHT22;15937;50.612;6.656;2023-09-19T17:55:42;17.80;99.90
26270;DHT22;15937;50.612;6.656;2023-09-19T17:59:44;17.80;99.90
26270;DHT22;15937;50.612;6.656;2023-09-19T18:03:46;17.80;99.90
26270;DHT22;15937;50.612;6.656;2023-09-19T18:07:48;17.80;99.90
26270;DHT22;15937;50.612;6.656;2023-09-19T18:11:50;17.80;99.90
26270;DHT22;15937;50.612;6.656;2023-09-19T18:15:51;17.80;99.90
26270;DHT22;15937;50.612;6.656;2023-09-19T18:19:53;17.70;99.90
26270;DHT22;15937;50.612;6.656;2023-09-19T18:23:55;17.70;99.90
26270;DHT22;15937;50.612;6.656;2023-09-19T18:27:58;17.50;99.90
26270;DHT22;15937;50.612;6.656;2023-09-19T18:32:00;17.50;99.90
26270;DHT22;15937;50.612;6.656;2023-09-19T18:36:02;17.50;99.90
26270;DHT22;15937;50.612;6.656;2023-09-19T18:40:05;17.60;99.90
26270;DHT22;15937;50.612;6.656;2023-09-19T18:44:09;17.50;99.90
26270;DHT22;15937;50.612;6.656;2023-09-19T18:48:12;17.50;99.90
26270;DHT22;15937;50.612;6.656;2023-09-19T18:52:15;17.50;99.90
26270;DHT22;15937;50.612;6.656;2023-09-19T18:56:16;17.50;99.90
26270;DHT22;15937;50.612;6.656;2023-09-19T19:00:20;17.50;99.90
26270;DHT22;15937;50.612;6.656;2023-09-19T19:04:27;17.50;99.90
26270;DHT22;15937;50.612;6.656;2023-09-19T19:08:29;17.40;99.90
26270;DHT22;15937;50.612;6.656;2023-09-19T19:12:34;17.40;99.90
26270;DHT22;15937;50.612;6.656;2023-09-19T19:16:36;17.40;99.90
26270;DHT22;15937;50.612;6.656;2023-09-19T19:20:39;17.40;99.90
26270;DHT22;15937;50.612;6.656;2023-09-19T19:24:43;17.40;99.90
26270;DHT22;15937;50.612;6.656;2023-09-19T19:28:45;17.40;99.90
26270;DHT22;15937;50.612;6.656;2023-09-19T19:32:47;17.40;99.90
26270;DHT22;15937;50.612;6.656;2023-09-19T19:36:49;17.40;99.90
26270;DHT22;15937;50.612;6.656;2023-09-19T19:40:58;17.40;99.90
26270;DHT22;15937;50.612;6.656;2023-09-19T19:45:01;17.30;99.90
26270;DHT22;15937;50.612;6.656;2023-09-19T19:49:03;17.20;99.90
26270;DHT22;15937;50.612;6.656;2023-09-19T19:53:07;17.30;99.90
26270;DHT22;15937;50.612;6.656;2023-09-19T19:57:10;17.30;99.90
26270;DHT22;15937;50.612;6.656;2023-09-19T20:01:11;17.30;99.90
26270;DHT22;15937;50.612;6.656;2023-09-19T20:05:13;17.20;99.90
26270;DHT22;15937;50.612;6.656;2023-09-19T20:09:15;17.30;99.90
26270;DHT22;15937;50.612;6.656;2023-09-19T20:13:17;17.30;99.90
26270;DHT22;15937;50.612;6.656;2023-09-19T20:17:19;17.30;99.90
26270;DHT22;15937;50.612;6.656;2023-09-19T20:21:23;17.30;99.90
26270;DHT22;15937;50.612;6.656;2023-09-19T20:25:26;17.20;99.90
26270;DHT22;15937;50.612;6.656;2023-09-19T20:29:29;17.30;99.90
26270;DHT22;15937;50.612;6.656;2023-09-19T20:33:34;17.30;99.90
26270;DHT22;15937;50.612;6.656;2023-09-19T20:37:39;17.20;99.90
26270;DHT22;15937;50.612;6.656;2023-09-19T20:41:40;17.20;99.90
26270;DHT22;15937;50.612;6.656;2023-09-19T20:45:42;17.30;99.90
26270;DHT22;15937;50.612;6.656;2023-09-19T20:49:44;17.20;99.90
26270;DHT22;15937;50.612;6.656;2023-09-19T20:53:47;17.20;99.90
26270;DHT22;15937;50.612;6.656;2023-09-19T20:57:48;17.20;99.90
26270;DHT22;15937;50.612;6.656;2023-09-19T21:01:50;17.20;99.90
26270;DHT22;15937;50.612;6.656;2023-09-19T21:06:02;17.20;99.90
26270;DHT22;15937;50.612;6.656;2023-09-19T21:10:08;17.10;99.90
26270;DHT22;15937;50.612;6.656;2023-09-19T21:14:10;17.00;99.90
26270;DHT22;15937;50.612;6.656;2023-09-19T21:18:12;17.10;99.90
26270;DHT22;15937;50.612;6.656;2023-09-19T21:22:14;17.00;99.90
26270;DHT22;15937;50.612;6.656;2023-09-19T21:26:15;17.10;99.90
26270;DHT22;15937;50.612;6.656;2023-09-19T21:30:17;17.10;99.90
26270;DHT22;15937;50.612;6.656;2023-09-19T21:34:20;17.00;99.90
26270;DHT22;15937;50.612;6.656;2023-09-19T21:38:22;17.00;99.90
26270;DHT22;15937;50.612;6.656;2023-09-19T21:42:24;17.00;99.90
26270;DHT22;15937;50.612;6.656;2023-09-19T21:46:25;17.00;99.90
26270;DHT22;15937;50.612;6.656;2023-09-19T21:50:28;16.90;99.90
26270;DHT22;15937;50.612;6.656;2023-09-19T21:54:32;17.00;99.90
26270;DHT22;15937;50.612;6.656;2023-09-19T21:58:34;17.00;99.90
26270;DHT22;15937;50.612;6.656;2023-09-19T22:02:38;17.00;99.90
26270;DHT22;15937;50.612;6.656;2023-09-19T22:06:40;17.00;99.90
26270;DHT22;15937;50.612;6.656;2023-09-19T22:10:43;17.00;99.90
26270;DHT22;15937;50.612;6.656;2023-09-19T22:14:44;17.00;99.90
26270;DHT22;15937;50.612;6.656;2023-09-19T22:18:46;17.00;99.90
26270;DHT22;15937;50.612;6.656;2023-09-19T22:22:48;17.00;99.90
26270;DHT22;15937;50.612;6.656;2023-09-19T22:26:50;17.00;99.90
26270;DHT22;15937;50.612;6.656;2023-09-19T22:30:52;17.00;99.90
26270;DHT22;15937;50.612;6.656;2023-09-19T22:34:55;17.00;99.90
26270;DHT22;15937;50.612;6.656;2023-09-19T22:38:58;17.00;99.90
26270;DHT22;15937;50.612;6.656;2023-09-19T22:43:03;17.00;99.90
26270;DHT22;15937;50.612;6.656;2023-09-19T22:47:08;17.10;99.90
26270;DHT22;15937;50.612;6.656;2023-09-19T22:51:09;17.10;99.90
26270;DHT22;15937;50.612;6.656;2023-09-19T22:55:14;17.10;99.90
26270;DHT22;15937;50.612;6.656;2023-09-19T22:59:25;17.00;99.90
26270;DHT22;15937;50.612;6.656;2023-09-19T23:03:27;17.10;99.90
26270;DHT22;15937;50.612;6.656;2023-09-19T23:07:33;17.10;99.90
26270;DHT22;15937;50.612;6.656;2023-09-19T23:11:36;17.10;99.90
26270;DHT22;15937;50.612;6.656;2023-09-19T23:15:40;17.10;99.90
26270;DHT22;15937;50.612;6.656;2023-09-19T23:19:44;17.00;99.90
26270;DHT22;15937;50.612;6.656;2023-09-19T23:23:50;17.00;99.90
26270;DHT22;15937;50.612;6.656;2023-09-19T23:27:52;17.10;99.90
26270;DHT22;15937;50.612;6.656;2023-09-19T23:32:00;17.00;99.90
26270;DHT22;15937;50.612;6.656;2023-09-19T23:36:03;17.10;99.90
26270;DHT22;15937;50.612;6.656;2023-09-19T23:40:08;17.10;99.90
26270;DHT22;15937;50.612;6.656;2023-09-19T23:44:11;17.10;99.90
26270;DHT22;15937;50.612;6.656;2023-09-19T23:48:14;17.10;99.90
26270;DHT22;15937;50.612;6.656;2023-09-19T23:52:18;17.10;99.90
26270;DHT22;15937;50.612;6.656;2023-09-19T23:56:20;17.10;99.90
